Time;durP1;ratioP1;P1;durP2;ratioP2;P2;SDS_P1;SDS_P2;PMS_P1;PMS_P2;Temp;Humidity;BMP_temperature;BMP_pressure;BME280_temperature;BME280_humidity;BME280_pressure;Samples;Min_cycle;Max_cycle;Signal;HPM_P1;HPM_P2
2022/01/26 00:00:57;;;;;;;13.53;12.33;;;;;;;5.00;84.29;102916.03;5054636;28;20439;-42
2022/01/26 00:06:16;;;;;;;15.60;12.63;;;;;;;5.00;84.07;102918.69;5054683;28;20497;-45
2022/01/26 00:08:44;;;;;;;17.30;12.93;;;;;;;4.99;84.73;102922.28;5053996;28;20467;-43
2022/01/26 00:11:11;;;;;;;13.97;12.47;;;;;;;4.98;83.49;102923.25;5054568;28;20428;-44
2022/01/26 00:13:39;;;;;;;17.27;12.23;;;;;;;5.00;82.88;102912.56;5054227;28;20459;-47
2022/01/26 00:16:15;;;;;;;14.73;12.73;;;;;;;5.03;83.21;102907.03;5054676;28;20453;-47
2022/01/26 00:18:43;;;;;;;17.70;13.20;;;;;;;5.01;83.58;102920.41;5053958;28;20470;-46
2022/01/26 00:21:17;;;;;;;16.47;13.00;;;;;;;5.01;83.47;102917.75;5054114;28;20466;-48
2022/01/26 00:26:34;;;;;;;14.80;13.30;;;;;;;4.98;82.73;102915.31;5033030;28;20486;-45
2022/01/26 00:29:13;;;;;;;22.93;14.57;;;;;;;5.00;82.63;102912.56;5053643;28;20458;-43
2022/01/26 00:40:13;;;;;;;19.37;14.00;;;;;;;4.96;80.79;102914.56;5053519;28;20467;-48
2022/01/26 00:42:42;;;;;;;21.17;14.63;;;;;;;4.99;80.44;102909.06;5053836;28;20822;-43
2022/01/26 00:45:10;;;;;;;17.70;14.90;;;;;;;4.96;81.45;102909.28;5045631;28;20475;-46
2022/01/26 00:47:39;;;;;;;16.90;14.50;;;;;;;4.95;81.15;102906.75;5053693;28;20427;-42
2022/01/26 00:50:11;;;;;;;15.70;13.73;;;;;;;4.99;81.04;102906.41;5053229;28;20463;-45
2022/01/26 00:52:39;;;;;;;17.93;14.17;;;;;;;4.98;81.76;102901.25;5053864;28;20946;-45
2022/01/26 00:55:09;;;;;;;22.80;15.53;;;;;;;4.97;82.11;102902.19;5053788;28;20458;-45
2022/01/26 00:57:37;;;;;;;24.83;14.90;;;;;;;4.95;82.72;102886.44;5053306;28;20438;-48
2022/01/26 01:00:07;;;;;;;18.20;15.10;;;;;;;4.99;81.85;102893.19;5053256;28;20470;-44
2022/01/26 01:02:35;;;;;;;19.63;14.27;;;;;;;5.00;82.04;102884.31;5053437;28;20463;-43
2022/01/26 01:05:13;;;;;;;21.03;15.97;;;;;;;5.01;82.24;102874.59;5053526;28;21130;-46
2022/01/26 01:07:42;;;;;;;23.00;15.77;;;;;;;5.00;83.27;102878.19;5053236;28;20434;-45
2022/01/26 01:10:10;;;;;;;19.57;14.80;;;;;;;5.01;84.31;102879.88;5052932;28;20467;-49
2022/01/26 01:12:42;;;;;;;16.90;14.70;;;;;;;4.93;84.93;102876.91;5053462;28;20835;-44
2022/01/26 01:15:11;;;;;;;22.10;15.80;;;;;;;4.96;83.60;102877.53;5053272;28;20963;-45
2022/01/26 01:17:43;;;;;;;24.07;16.83;;;;;;;4.96;83.70;102866.97;5053173;28;20776;-45
2022/01/26 01:20:27;;;;;;;22.47;17.67;;;;;;;4.94;84.22;102874.16;5052811;28;20482;-43
2022/01/26 01:23:13;;;;;;;21.27;16.63;;;;;;;4.97;84.17;102867.81;5076780;22;20969;-55
2022/01/26 01:28:44;;;;;;;21.30;16.30;;;;;;;4.93;84.49;102861.03;5052536;28;20461;-52
2022/01/26 01:31:17;;;;;;;20.87;16.80;;;;;;;4.94;84.13;102863.59;5053309;28;20930;-50
2022/01/26 01:33:47;;;;;;;26.10;17.20;;;;;;;4.97;83.15;102854.59;5052551;28;20460;-52
2022/01/26 01:36:16;;;;;;;29.37;18.10;;;;;;;4.96;82.77;102860.81;5052951;28;20419;-50
2022/01/26 01:38:44;;;;;;;25.33;17.47;;;;;;;4.97;83.35;102863.38;5052225;28;20828;-50
2022/01/26 01:41:11;;;;;;;23.43;17.63;;;;;;;4.98;82.81;102851.84;5052677;28;20441;-52
2022/01/26 01:43:39;;;;;;;20.30;16.83;;;;;;;4.96;83.38;102851.09;5052829;28;20455;-50
2022/01/26 01:46:07;;;;;;;22.83;16.10;;;;;;;4.98;83.39;102849.22;5063871;28;20470;-49
2022/01/26 01:48:35;;;;;;;21.53;16.07;;;;;;;4.98;84.07;102851.00;5072006;28;21060;-52
2022/01/26 01:51:08;;;;;;;21.93;16.17;;;;;;;4.97;84.72;102844.88;5072525;28;20939;-48
2022/01/26 01:53:40;;;;;;;26.43;18.13;;;;;;;4.92;84.49;102852.28;5072386;28;20986;-49
2022/01/26 01:56:09;;;;;;;32.20;17.87;;;;;;;4.92;84.58;102844.34;5072785;28;20445;-49
2022/01/26 01:58:37;;;;;;;23.73;17.23;;;;;;;4.96;84.39;102842.31;5071951;28;20470;-50
2022/01/26 02:01:06;;;;;;;22.97;17.20;;;;;;;4.94;84.31;102847.72;5072493;28;20418;-50
2022/01/26 02:03:34;;;;;;;23.20;16.03;;;;;;;4.95;84.80;102841.50;5072382;28;20451;-52
2022/01/26 02:06:02;;;;;;;24.13;17.10;;;;;;;4.94;85.02;102833.66;5072247;28;20544;-51
2022/01/26 02:08:29;;;;;;;22.00;16.53;;;;;;;4.93;85.80;102826.66;5071507;28;20473;-55
2022/01/26 02:10:58;;;;;;;18.17;16.20;;;;;;;4.95;85.51;102830.06;5072438;28;20427;-55
2022/01/26 02:13:30;;;;;;;22.03;16.97;;;;;;;4.92;86.12;102828.50;5072212;28;20458;-49
2022/01/26 02:16:07;;;;;;;25.17;16.30;;;;;;;4.93;86.50;102824.03;5072394;28;20422;-55
2022/01/26 02:18:53;;;;;;;23.70;16.70;;;;;;;4.92;86.80;102832.94;5071523;28;20469;-53
2022/01/26 02:57:51;;;;;;;31.70;21.40;;;;;;;4.78;86.16;102793.44;5150726;27;20503;-47
2022/01/26 03:00:24;;;;;;;35.33;22.13;;;;;;;4.78;85.98;102780.22;5068749;28;20435;-49
2022/01/26 03:02:56;;;;;;;31.50;22.50;;;;;;;4.81;85.15;102785.25;5067267;28;20431;-50
2022/01/26 03:05:29;;;;;;;40.23;22.73;;;;;;;4.80;85.40;102778.28;5049022;28;20442;-51
2022/01/26 03:08:01;;;;;;;36.10;22.27;;;;;;;4.81;86.38;102780.81;5049911;28;20435;-46
2022/01/26 03:10:37;;;;;;;33.37;21.60;;;;;;;4.79;86.85;102780.09;5068919;28;20431;-49
2022/01/26 03:13:10;;;;;;;43.03;23.50;;;;;;;4.81;86.95;102770.25;5068989;28;20450;-46
2022/01/26 03:15:42;;;;;;;34.23;24.43;;;;;;;4.80;87.93;102771.22;5068998;28;20430;-51
2022/01/26 03:20:54;;;;;;;36.63;24.10;;;;;;;4.77;88.33;102763.50;5045504;28;20432;-47
2022/01/26 03:29:11;;;;;;;38.73;22.53;;;;;;;4.77;88.88;102758.22;5048070;28;20459;-51
2022/01/26 03:34:21;;;;;;;26.33;21.30;;;;;;;4.75;90.09;102743.44;5025795;28;20485;-50
2022/01/26 03:36:53;;;;;;;32.97;22.30;;;;;;;4.73;89.85;102730.31;5048522;28;20844;-53
2022/01/26 03:39:23;;;;;;;39.00;23.67;;;;;;;4.74;89.84;102728.50;5047642;28;20463;-49
2022/01/26 03:41:55;;;;;;;38.37;25.37;;;;;;;4.76;89.59;102730.09;5048396;28;20948;-50
2022/01/26 03:44:24;;;;;;;40.40;22.53;;;;;;;4.73;90.69;102734.75;5061137;28;20454;-55
2022/01/26 03:46:52;;;;;;;36.43;22.80;;;;;;;4.74;89.98;102737.28;5068318;28;20427;-51
2022/01/26 03:49:20;;;;;;;27.80;20.10;;;;;;;4.70;89.43;102729.69;5080596;28;20479;-48
2022/01/26 03:51:47;;;;;;;33.67;22.13;;;;;;;4.72;89.32;102725.16;5088442;28;20425;-51
2022/01/26 03:54:16;;;;;;;38.90;24.77;;;;;;;4.72;88.98;102727.78;5088234;28;20544;-49
2022/01/26 03:56:44;;;;;;;40.53;23.60;;;;;;;4.71;88.85;102728.72;5087981;28;20473;-48
2022/01/26 03:59:12;;;;;;;38.50;23.53;;;;;;;4.73;89.11;102725.03;5087652;28;20461;-47
2022/01/26 04:01:41;;;;;;;30.23;20.73;;;;;;;4.75;89.51;102725.75;5088247;28;20433;-48
2022/01/26 04:04:09;;;;;;;37.80;21.97;;;;;;;4.75;89.74;102733.66;5088164;28;20454;-46
2022/01/26 04:06:37;;;;;;;40.73;22.53;;;;;;;4.74;89.93;102729.38;5088103;28;20476;-46
2022/01/26 04:09:08;;;;;;;37.33;25.67;;;;;;;4.69;90.66;102731.47;5073405;28;20822;-49
2022/01/26 04:11:38;;;;;;;39.57;23.07;;;;;;;4.68;90.18;102721.03;5074413;28;20435;-48
2022/01/26 04:14:08;;;;;;;39.00;23.53;;;;;;;4.69;90.94;102710.31;5074547;28;20458;-50
2022/01/26 04:16:39;;;;;;;35.23;21.90;;;;;;;4.71;90.97;102716.38;5074298;28;20466;-46
2022/01/26 04:19:09;;;;;;;35.60;22.50;;;;;;;4.72;91.71;102711.94;5073801;28;20465;-46
2022/01/26 04:21:53;;;;;;;39.33;24.60;;;;;;;4.73;92.14;102710.97;5074288;28;20430;-46
2022/01/26 04:24:25;;;;;;;34.83;23.70;;;;;;;4.72;92.59;102707.47;5074357;28;20454;-47
2022/01/26 04:26:58;;;;;;;35.13;26.00;;;;;;;4.67;93.22;102712.25;5074132;28;20903;-46
2022/01/26 04:29:28;;;;;;;41.03;25.40;;;;;;;4.71;92.42;102707.59;5073607;28;20462;-47
2022/01/26 04:31:56;;;;;;;41.90;23.70;;;;;;;4.69;91.95;102707.69;5074465;28;20430;-50
2022/01/26 04:34:26;;;;;;;39.53;25.60;;;;;;;4.68;91.29;102691.97;5074226;28;20457;-50
2022/01/26 04:36:58;;;;;;;37.80;25.93;;;;;;;4.65;91.92;102671.88;5073985;28;20470;-46
2022/01/26 04:39:30;;;;;;;45.67;26.07;;;;;;;4.65;91.33;102686.88;5073400;28;20500;-46
2022/01/26 04:42:01;;;;;;;44.03;25.80;;;;;;;4.66;90.76;102684.13;5074033;28;20795;-46
2022/01/26 04:44:34;;;;;;;40.57;25.60;;;;;;;4.61;92.20;102690.69;5065691;28;20461;-49
2022/01/26 04:47:02;;;;;;;41.30;24.30;;;;;;;4.59;93.11;102692.63;5073641;28;20934;-48
2022/01/26 04:49:33;;;;;;;36.83;25.10;;;;;;;4.60;93.20;102695.13;5073160;28;20463;-48
2022/01/26 04:52:01;;;;;;;36.63;24.90;;;;;;;4.57;93.56;102702.47;5073905;28;20433;-50
2022/01/26 04:54:28;;;;;;;41.53;26.93;;;;;;;4.52;93.65;102705.41;5073617;28;20453;-49
2022/01/26 04:56:56;;;;;;;42.10;26.63;;;;;;;4.51;94.34;102690.50;5073419;28;20514;-49
2022/01/26 04:59:23;;;;;;;37.90;25.37;;;;;;;4.54;93.33;102689.47;5072959;28;20469;-51
2022/01/26 05:01:51;;;;;;;44.57;26.90;;;;;;;4.48;93.96;102674.88;5073704;28;20431;-53
2022/01/26 05:04:19;;;;;;;42.20;25.73;;;;;;;4.52;93.46;102665.78;5073327;28;20458;-50
2022/01/26 05:06:48;;;;;;;42.20;25.00;;;;;;;4.50;93.34;102640.44;5073637;28;20771;-48
2022/01/26 05:09:16;;;;;;;37.10;25.27;;;;;;;4.53;94.01;102646.34;5072872;28;20458;-48
2022/01/26 05:11:46;;;;;;;39.67;26.07;;;;;;;4.53;93.53;102656.91;5073217;28;20430;-52
2022/01/26 05:14:14;;;;;;;41.43;26.70;;;;;;;4.51;93.71;102663.28;5073605;28;20465;-46
2022/01/26 05:16:42;;;;;;;49.40;29.03;;;;;;;4.50;93.39;102657.13;5073228;28;20478;-51
2022/01/26 05:19:09;;;;;;;39.80;27.97;;;;;;;4.51;92.95;102656.16;5071526;28;20462;-49
2022/01/26 05:21:37;;;;;;;37.53;27.67;;;;;;;4.52;92.70;102655.22;5073028;28;20435;-48
2022/01/26 05:24:07;;;;;;;40.40;28.37;;;;;;;4.51;92.23;102642.13;5072902;28;20455;-46
2022/01/26 05:26:35;;;;;;;41.77;27.30;;;;;;;4.51;92.64;102658.81;5073450;28;20419;-48
2022/01/26 05:29:02;;;;;;;45.60;30.30;;;;;;;4.52;91.87;102649.09;5072382;28;20467;-48
2022/01/26 05:31:30;;;;;;;50.03;29.10;;;;;;;4.47;90.93;102660.00;5073077;28;20437;-52
2022/01/26 05:33:58;;;;;;;42.43;27.93;;;;;;;4.48;89.94;102648.47;5072828;28;20458;-47
2022/01/26 05:36:26;;;;;;;46.67;27.20;;;;;;;4.45;89.53;102638.13;5072812;28;20430;-53
2022/01/26 05:38:54;;;;;;;47.00;33.43;;;;;;;4.45;88.39;102640.75;5071891;28;20474;-53
2022/01/26 05:41:23;;;;;;;42.97;31.73;;;;;;;4.43;88.62;102630.31;5072952;28;20433;-46
2022/01/26 05:43:50;;;;;;;53.03;28.77;;;;;;;4.42;89.28;102628.63;5064735;28;20832;-48
2022/01/26 05:46:25;;;;;;;55.00;31.87;;;;;;;4.40;89.00;102627.91;5072682;28;20431;-50
2022/01/26 05:48:53;;;;;;;50.90;30.33;;;;;;;4.34;89.71;102614.28;5071944;28;20473;-46
2022/01/26 05:51:21;;;;;;;47.90;32.17;;;;;;;4.35;90.19;102610.69;5072323;28;20427;-47
2022/01/26 05:53:49;;;;;;;44.40;30.03;;;;;;;4.37;90.77;102614.06;5072611;28;20457;-49
2022/01/26 05:56:17;;;;;;;39.20;28.40;;;;;;;4.34;91.44;102609.84;5072412;28;20438;-50
2022/01/26 05:58:46;;;;;;;42.13;29.23;;;;;;;4.38;91.70;102615.75;5071689;28;20482;-51
2022/01/26 06:01:14;;;;;;;45.07;29.60;;;;;;;4.35;93.12;102616.81;5072246;28;20492;-49
2022/01/26 06:03:42;;;;;;;40.00;29.87;;;;;;;4.37;93.98;102606.97;5072155;28;20455;-47
2022/01/26 06:06:10;;;;;;;44.27;29.43;;;;;;;4.43;93.77;102608.34;5072416;28;20520;-47
2022/01/26 06:08:37;;;;;;;42.97;30.50;;;;;;;4.41;94.52;102618.19;5071622;28;20866;-46
2022/01/26 06:11:05;;;;;;;46.03;32.20;;;;;;;4.44;94.51;102623.25;5072293;28;20492;-51
2022/01/26 06:13:32;;;;;;;44.03;31.80;;;;;;;4.46;94.60;102614.25;5071907;28;21169;-46
2022/01/26 06:16:01;;;;;;;47.77;31.90;;;;;;;4.45;94.93;102611.69;5072102;28;20430;-50
2022/01/26 06:18:29;;;;;;;43.10;30.27;;;;;;;4.47;94.33;102618.59;5071156;28;20492;-50
2022/01/26 06:20:57;;;;;;;48.50;32.90;;;;;;;4.48;94.77;102614.97;5071990;28;20431;-46
2022/01/26 06:23:25;;;;;;;48.43;34.17;;;;;;;4.49;94.84;102613.16;5072125;28;20454;-46
2022/01/26 06:25:54;;;;;;;50.87;33.93;;;;;;;4.49;95.03;102605.25;5071958;28;20430;-48
2022/01/26 06:28:23;;;;;;;46.07;33.47;;;;;;;4.49;95.45;102610.53;5071182;28;20462;-47
2022/01/26 06:30:56;;;;;;;42.33;33.23;;;;;;;4.48;95.20;102601.75;5071554;28;20431;-47
2022/01/26 06:33:25;;;;;;;43.20;32.87;;;;;;;4.46;94.97;102598.41;5072002;28;20466;-53
2022/01/26 06:35:53;;;;;;;37.67;30.07;;;;;;;4.49;95.28;102602.59;5071857;28;20438;-48
2022/01/26 06:38:24;;;;;;;46.53;32.57;;;;;;;4.47;95.68;102608.00;5071130;28;20839;-49
2022/01/26 06:40:51;;;;;;;43.33;32.80;;;;;;;4.48;94.87;102592.97;5071822;28;20947;-46
2022/01/26 06:43:20;;;;;;;43.77;32.40;;;;;;;4.45;95.14;102607.25;5067341;28;21090;-46
2022/01/26 06:45:51;;;;;;;53.63;33.20;;;;;;;4.49;94.76;102599.97;5068509;28;20426;-50
2022/01/26 06:51:05;;;;;;;45.27;33.50;;;;;;;4.46;94.05;102598.41;5071652;28;20911;-51
2022/01/26 06:53:33;;;;;;;46.80;33.57;;;;;;;4.45;94.39;102609.06;5071608;28;20493;-50
2022/01/26 06:56:00;;;;;;;47.80;34.10;;;;;;;4.41;94.33;102613.75;5071460;28;20454;-49
2022/01/26 06:58:28;;;;;;;42.50;31.47;;;;;;;4.40;94.17;102608.56;5071002;28;20471;-53
2022/01/26 07:00:57;;;;;;;46.97;32.47;;;;;;;4.40;94.42;102604.13;5071560;28;20434;-46
2022/01/26 07:03:24;;;;;;;50.67;33.50;;;;;;;4.43;94.36;102610.97;5071447;28;20458;-48
2022/01/26 07:05:52;;;;;;;46.17;32.00;;;;;;;4.39;94.87;102609.53;5071551;28;20431;-51
2022/01/26 07:08:21;;;;;;;46.60;33.40;;;;;;;4.40;95.19;102613.84;5070774;28;20454;-48
2022/01/26 07:10:51;;;;;;;47.97;34.37;;;;;;;4.43;95.37;102613.63;5071706;28;20423;-48
2022/01/26 07:13:19;;;;;;;45.93;33.90;;;;;;;4.38;95.73;102613.13;5071407;28;20924;-49
2022/01/26 07:21:25;;;;;;;51.70;35.67;;;;;;;4.41;95.84;102608.47;5071595;28;20437;-48
2022/01/26 07:23:55;;;;;;;48.67;34.10;;;;;;;4.42;95.75;102604.03;5067447;22;20484;-46
2022/01/26 07:26:26;;;;;;;52.03;34.30;;;;;;;4.39;95.12;102604.25;5011761;28;20807;-44
2022/01/26 07:28:54;;;;;;;53.07;32.80;;;;;;;4.41;95.38;102615.53;5011266;28;20476;-45
2022/01/26 07:31:22;;;;;;;55.53;36.47;;;;;;;4.40;95.19;102608.56;5011579;28;20433;-49
2022/01/26 07:33:54;;;;;;;51.93;33.80;;;;;;;4.40;95.07;102609.41;5018560;28;20456;-48
2022/01/26 07:36:22;;;;;;;53.13;35.63;;;;;;;4.42;95.01;102610.13;5031505;28;20431;-49
2022/01/26 07:38:50;;;;;;;56.53;36.50;;;;;;;4.43;94.94;102606.53;5030501;28;20985;-45
2022/01/26 07:41:20;;;;;;;51.77;37.40;;;;;;;4.44;95.10;102595.03;5031402;28;20447;-45
2022/01/26 07:43:48;;;;;;;52.27;36.27;;;;;;;4.40;94.92;102595.34;5025852;28;20464;-44
2022/01/26 07:46:17;;;;;;;56.33;36.30;;;;;;;4.42;95.08;102599.56;5034898;28;20428;-44
2022/01/26 07:48:45;;;;;;;54.07;36.10;;;;;;;4.42;94.82;102604.84;5034479;28;20472;-45
2022/01/26 07:51:12;;;;;;;54.40;36.80;;;;;;;4.42;94.59;102596.09;5035106;28;20432;-44
2022/01/26 07:53:40;;;;;;;57.57;36.93;;;;;;;4.40;94.66;102601.47;5034867;28;20459;-46
2022/01/26 07:56:07;;;;;;;55.43;36.50;;;;;;;4.37;94.48;102606.13;5034833;28;20455;-48
2022/01/26 07:58:36;;;;;;;54.93;36.07;;;;;;;4.38;93.98;102602.56;5034113;28;20476;-48
2022/01/26 08:01:04;;;;;;;54.23;36.00;;;;;;;4.28;94.35;102601.53;5034930;28;20439;-46
2022/01/26 08:03:33;;;;;;;54.20;36.13;;;;;;;4.32;93.79;102595.91;5034589;28;20479;-45
2022/01/26 08:06:02;;;;;;;56.33;34.80;;;;;;;4.32;94.10;102589.78;5034647;28;20436;-47
2022/01/26 08:08:30;;;;;;;54.70;35.03;;;;;;;4.25;94.87;102592.03;5034042;28;20479;-47
2022/01/26 08:11:00;;;;;;;55.27;36.07;;;;;;;4.30;94.46;102587.25;5034416;28;20555;-45
2022/01/26 08:13:27;;;;;;;54.47;33.50;;;;;;;4.27;94.36;102584.81;5034781;28;20452;-49
2022/01/26 08:15:57;;;;;;;52.20;33.30;;;;;;;4.27;94.29;102587.47;5034682;28;20434;-45
2022/01/26 08:18:25;;;;;;;55.70;34.17;;;;;;;4.24;94.32;102592.16;5033924;28;20472;-48
2022/01/26 08:20:53;;;;;;;54.97;33.27;;;;;;;4.22;93.80;102602.81;5034342;28;20918;-47
2022/01/26 08:23:22;;;;;;;54.57;35.60;;;;;;;4.26;94.05;102604.28;5034116;28;20456;-49
2022/01/26 08:25:51;;;;;;;53.80;33.47;;;;;;;4.25;93.84;102607.88;5034566;28;20447;-47
2022/01/26 08:28:23;;;;;;;55.23;36.00;;;;;;;4.28;93.75;102602.38;5033565;28;20456;-45
2022/01/26 08:30:51;;;;;;;55.83;33.97;;;;;;;4.27;93.39;102594.56;5034359;28;20521;-46
2022/01/26 08:33:20;;;;;;;75.00;37.40;;;;;;;4.28;93.54;102602.38;5034143;28;20440;-44
2022/01/26 08:35:48;;;;;;;59.00;34.43;;;;;;;4.25;93.25;102602.59;5034153;28;20424;-47
2022/01/26 08:38:15;;;;;;;54.77;32.77;;;;;;;4.26;93.08;102620.13;5033472;28;20524;-49
2022/01/26 08:40:43;;;;;;;59.20;32.20;;;;;;;4.26;92.86;102616.63;5034174;28;20432;-43
2022/01/26 08:43:11;;;;;;;49.93;31.43;;;;;;;4.25;93.02;102612.31;5033854;28;20941;-44
2022/01/26 08:45:38;;;;;;;46.50;29.73;;;;;;;4.31;93.08;102619.78;5025706;28;20439;-46
2022/01/26 08:48:07;;;;;;;52.73;33.07;;;;;;;4.32;92.90;102627.63;5033306;28;20452;-46
2022/01/26 08:50:36;;;;;;;64.70;32.60;;;;;;;4.38;92.87;102613.97;5033733;28;20429;-44
2022/01/26 08:53:04;;;;;;;53.50;32.33;;;;;;;4.41;93.91;102616.38;5033806;28;20436;-47
2022/01/26 08:55:33;;;;;;;62.53;33.40;;;;;;;4.40;93.85;102603.28;5033966;28;20797;-47
2022/01/26 08:58:00;;;;;;;49.40;29.70;;;;;;;4.43;94.00;102589.84;5033160;28;20454;-51
2022/01/26 09:00:28;;;;;;;50.43;29.63;;;;;;;4.43;94.05;102601.25;5033702;28;20472;-47
2022/01/26 09:02:57;;;;;;;53.37;30.97;;;;;;;4.43;94.22;102598.63;5033438;28;20432;-50
2022/01/26 09:05:25;;;;;;;53.27;31.73;;;;;;;4.43;94.51;102584.56;5033520;28;20483;-47
2022/01/26 09:07:57;;;;;;;55.90;31.37;;;;;;;4.40;94.42;102577.72;5033050;28;20802;-45
2022/01/26 09:10:27;;;;;;;52.73;32.93;;;;;;;4.43;94.02;102587.19;5033635;28;20797;-45
2022/01/26 09:12:55;;;;;;;54.93;32.70;;;;;;;4.40;93.43;102590.06;5033445;28;20527;-47
2022/01/26 09:15:28;;;;;;;54.47;32.30;;;;;;;4.40;93.78;102588.28;5033136;28;20459;-48
2022/01/26 09:17:56;;;;;;;53.73;31.17;;;;;;;4.36;93.39;102570.94;5032955;28;20432;-50
2022/01/26 09:20:24;;;;;;;56.10;34.80;;;;;;;4.39;91.99;102568.09;5033351;28;20476;-47
2022/01/26 09:22:52;;;;;;;60.10;34.57;;;;;;;4.39;92.86;102572.56;5033344;28;20433;-49
2022/01/26 09:25:21;;;;;;;56.90;32.97;;;;;;;4.34;92.55;102587.88;5033061;28;20464;-50
2022/01/26 09:27:49;;;;;;;54.13;32.50;;;;;;;4.36;92.09;102593.91;5032459;28;20432;-47
2022/01/26 09:30:17;;;;;;;51.73;32.37;;;;;;;4.38;92.20;102594.63;5033230;28;20984;-45
2022/01/26 09:32:45;;;;;;;57.93;32.17;;;;;;;4.40;91.99;102587.41;5033549;28;20460;-43
2022/01/26 09:35:13;;;;;;;54.43;31.20;;;;;;;4.36;92.50;102584.16;5033161;28;20961;-46
2022/01/26 09:37:43;;;;;;;52.47;32.60;;;;;;;4.37;92.32;102585.00;5033079;28;20490;-46
2022/01/26 09:40:11;;;;;;;59.37;31.37;;;;;;;4.30;92.01;102581.16;5032597;28;21052;-46
2022/01/26 09:42:41;;;;;;;55.67;31.93;;;;;;;4.32;91.47;102595.91;5033030;28;20468;-47
2022/01/26 09:45:10;;;;;;;58.97;29.97;;;;;;;4.34;91.21;102599.28;5024397;28;21015;-45
2022/01/26 09:47:38;;;;;;;55.10;31.73;;;;;;;4.39;91.39;102605.06;5032707;28;20439;-49
2022/01/26 09:50:26;;;;;;;56.10;32.80;;;;;;;4.40;91.26;102603.28;5032514;28;20460;-45
2022/01/26 09:52:55;;;;;;;50.97;30.77;;;;;;;4.40;92.00;102603.28;5032626;28;20802;-45
2022/01/26 09:55:23;;;;;;;50.10;30.80;;;;;;;4.36;91.50;102610.56;5032586;28;20460;-44
2022/01/26 09:57:57;;;;;;;54.33;29.90;;;;;;;4.37;91.85;102614.91;5032169;28;20432;-45
2022/01/26 10:00:25;;;;;;;63.70;33.30;;;;;;;4.41;91.23;102611.09;5032578;28;20482;-46
2022/01/26 10:02:57;;;;;;;54.40;32.17;;;;;;;4.44;91.78;102615.31;5032465;28;20467;-46
2022/01/26 10:05:25;;;;;;;48.80;32.93;;;;;;;4.49;92.04;102621.09;5031848;28;20460;-49
2022/01/26 10:08:07;;;;;;;54.73;33.27;;;;;;;4.46;92.34;102621.31;5031932;28;20435;-47
2022/01/26 10:16:54;;;;;;;60.53;33.30;;;;;;;4.49;90.29;102621.09;5032480;28;20429;-51
2022/01/26 10:19:19;;;;;;;57.97;33.83;;;;;;;4.55;90.03;102625.94;5031405;28;20475;-49
2022/01/26 10:21:47;;;;;;;59.87;34.87;;;;;;;4.56;90.03;102611.78;5032188;28;20933;-44
2022/01/26 10:24:16;;;;;;;63.00;34.37;;;;;;;4.53;90.74;102604.06;5031840;28;20472;-47
2022/01/26 10:26:48;;;;;;;67.30;34.13;;;;;;;4.56;90.48;102611.78;5032369;28;20435;-47
2022/01/26 10:29:17;;;;;;;55.37;33.23;;;;;;;4.60;90.54;102610.59;5031544;28;20472;-46
2022/01/26 10:31:45;;;;;;;61.20;33.40;;;;;;;4.63;90.87;102598.97;5032189;28;20439;-49
2022/01/26 10:34:15;;;;;;;60.83;34.50;;;;;;;4.59;91.43;102601.00;5031928;28;20547;-45
2022/01/26 10:36:44;;;;;;;61.53;35.13;;;;;;;4.65;91.24;102589.13;5031951;28;20439;-46
2022/01/26 10:39:20;;;;;;;68.30;36.77;;;;;;;4.72;91.55;102572.69;5031328;28;20464;-46
2022/01/26 10:41:50;;;;;;;58.20;30.67;;;;;;;4.76;92.57;102575.94;5031977;28;20940;-48
2022/01/26 10:44:26;;;;;;;61.13;34.17;;;;;;;4.81;93.29;102571.16;5027506;28;20815;-45
2022/01/26 10:46:54;;;;;;;57.00;31.87;;;;;;;4.83;93.27;102571.91;5020131;28;20953;-44
2022/01/26 10:49:44;;;;;;;61.13;33.40;;;;;;;4.86;94.55;102554.00;5011473;28;20556;-47
2022/01/26 10:52:19;;;;;;;51.90;31.33;;;;;;;4.94;94.18;102548.13;5012199;28;20429;-49
2022/01/26 10:54:47;;;;;;;64.20;34.30;;;;;;;5.01;95.05;102550.22;5012124;28;20468;-50
2022/01/26 10:57:15;;;;;;;51.30;32.40;;;;;;;5.09;95.43;102525.81;5011726;28;20433;-46
2022/01/26 10:59:46;;;;;;;53.30;31.77;;;;;;;5.16;95.78;102519.09;5011367;28;20571;-45
2022/01/26 11:02:19;;;;;;;54.80;32.30;;;;;;;5.21;95.67;102526.66;5012180;28;20814;-47
2022/01/26 11:04:48;;;;;;;49.43;30.20;;;;;;;5.19;96.48;102536.53;5012043;28;20468;-50
2022/01/26 11:07:16;;;;;;;54.10;30.80;;;;;;;5.25;96.11;102513.09;5011736;28;20478;-47
2022/01/26 11:09:45;;;;;;;71.47;33.80;;;;;;;5.24;96.51;102516.69;5011572;28;20480;-46
2022/01/26 11:12:16;;;;;;;61.90;31.93;;;;;;;5.25;96.53;102513.09;5011876;28;20786;-45
2022/01/26 11:14:50;;;;;;;58.20;33.43;;;;;;;5.23;96.63;102514.16;5011970;28;20468;-47
2022/01/26 11:17:30;;;;;;;52.47;31.73;;;;;;;5.21;96.36;102511.66;5012015;28;20436;-49
2022/01/26 11:19:59;;;;;;;57.87;30.97;;;;;;;5.22;96.27;102501.91;5015340;28;20477;-50
2022/01/26 11:22:29;;;;;;;58.30;31.90;;;;;;;5.24;95.60;102489.41;5015661;28;20440;-47
2022/01/26 11:25:08;;;;;;;57.07;29.60;;;;;;;5.23;94.74;102496.47;5015494;28;20989;-47
2022/01/26 11:27:39;;;;;;;58.17;30.77;;;;;;;5.28;95.27;102494.34;5015576;28;20496;-47
2022/01/26 11:30:18;;;;;;;52.43;27.13;;;;;;;5.27;95.49;102505.03;5015136;28;20463;-43
2022/01/26 11:32:54;;;;;;;48.20;26.20;;;;;;;5.34;95.26;102490.38;5015595;28;20796;-44
2022/01/26 11:35:24;;;;;;;44.10;27.10;;;;;;;5.32;95.49;102489.63;5015656;28;20449;-48
2022/01/26 11:38:05;;;;;;;42.10;26.40;;;;;;;5.33;95.45;102491.31;5014868;28;20437;-47
2022/01/26 11:46:25;;;;;;;49.23;28.60;;;;;;;5.45;94.78;102482.44;5023591;28;20440;-43
2022/01/26 11:49:01;;;;;;;39.77;26.03;;;;;;;5.44;95.84;102486.03;5014516;28;20468;-45
2022/01/26 11:51:39;;;;;;;40.63;26.27;;;;;;;5.47;95.12;102486.63;5015297;28;20428;-48
2022/01/26 11:54:12;;;;;;;39.97;25.53;;;;;;;5.48;95.76;102482.19;5015372;28;20461;-47
2022/01/26 11:56:40;;;;;;;38.37;25.37;;;;;;;5.51;95.25;102474.84;5015109;28;20985;-46
2022/01/26 11:59:20;;;;;;;41.03;24.40;;;;;;;5.51;95.94;102466.91;5014591;28;20468;-48
2022/01/26 12:01:56;;;;;;;43.47;24.90;;;;;;;5.52;95.65;102459.81;5015100;28;20475;-45
2022/01/26 12:04:25;;;;;;;42.07;27.07;;;;;;;5.47;95.60;102465.47;5015204;28;20589;-48
2022/01/26 12:06:59;;;;;;;38.50;26.80;;;;;;;5.45;95.72;102445.38;5014891;28;21046;-50
2022/01/26 12:09:26;;;;;;;41.53;25.63;;;;;;;5.43;95.15;102464.03;5014338;28;20469;-45
2022/01/26 12:11:55;;;;;;;44.70;23.47;;;;;;;5.44;95.32;102460.41;5014897;28;20444;-47
2022/01/26 12:14:24;;;;;;;44.50;23.60;;;;;;;5.46;95.09;102455.03;5014629;28;20463;-48
2022/01/26 12:16:58;;;;;;;38.87;24.47;;;;;;;5.43;95.51;102452.63;5014805;28;20436;-47
2022/01/26 12:19:33;;;;;;;32.90;24.07;;;;;;;5.44;94.27;102457.78;5014178;28;20897;-50
2022/01/26 12:33:42;;;;;;;29.40;22.97;;;;;;;5.52;95.49;102452.72;4994719;28;20441;-47
2022/01/26 12:36:22;;;;;;;32.37;21.47;;;;;;;5.52;95.53;102450.09;4994811;28;20457;-48
2022/01/26 12:38:57;;;;;;;32.73;23.03;;;;;;;5.47;95.13;102460.16;4994211;28;20819;-51
2022/01/26 12:41:31;;;;;;;32.63;21.37;;;;;;;5.43;93.93;102453.47;4994628;28;20474;-44
2022/01/26 12:44:01;;;;;;;38.10;23.17;;;;;;;5.45;93.85;102448.88;4996280;28;20458;-47
2022/01/26 12:46:31;;;;;;;34.53;20.73;;;;;;;5.40;93.34;102434.34;5014315;28;20429;-46
2022/01/26 12:49:01;;;;;;;44.43;24.00;;;;;;;5.42;93.23;102437.69;5023466;28;20568;-48
2022/01/26 12:51:31;;;;;;;36.40;22.13;;;;;;;5.44;93.03;102433.09;5033866;28;20435;-49
2022/01/26 12:54:02;;;;;;;38.47;21.20;;;;;;;5.49;92.56;102428.31;5033812;28;20457;-51
2022/01/26 12:56:31;;;;;;;32.03;21.10;;;;;;;5.50;92.99;102420.25;5033774;28;20421;-46
2022/01/26 12:59:00;;;;;;;35.63;22.70;;;;;;;5.48;92.78;102405.47;5033268;28;20468;-44
2022/01/26 13:01:28;;;;;;;34.60;22.13;;;;;;;5.52;93.39;102414.84;5033746;28;20479;-47
2022/01/26 13:03:59;;;;;;;40.33;23.17;;;;;;;5.50;92.88;102404.38;5033676;28;20445;-46
2022/01/26 13:06:31;;;;;;;35.60;21.90;;;;;;;5.48;92.92;102400.16;5033736;28;20432;-44